sensor_id;sensor_type;location;lat;lon;timestamp;temperature;humidity
60027;DHT22;45891;53.006;6.512;2023-04-03T00:00:05;2.40;99.90
60027;DHT22;45891;53.006;6.512;2023-04-03T00:02:32;2.40;99.90
60027;DHT22;45891;53.006;6.512;2023-04-03T00:04:58;2.30;99.90
60027;DHT22;45891;53.006;6.512;2023-04-03T00:07:24;2.40;99.90
60027;DHT22;45891;53.006;6.512;2023-04-03T00:09:50;2.30;99.90
60027;DHT22;45891;53.006;6.512;2023-04-03T00:12:16;2.30;99.90
60027;DHT22;45891;53.006;6.512;2023-04-03T00:14:42;2.30;99.90
60027;DHT22;45891;53.006;6.512;2023-04-03T00:17:08;2.20;99.90
60027;DHT22;45891;53.006;6.512;2023-04-03T00:19:34;2.30;99.90
60027;DHT22;45891;53.006;6.512;2023-04-03T00:22:00;2.20;99.90
60027;DHT22;45891;53.006;6.512;2023-04-03T00:24:26;2.20;99.90
60027;DHT22;45891;53.006;6.512;2023-04-03T00:26:52;2.20;99.90
60027;DHT22;45891;53.006;6.512;2023-04-03T00:29:18;2.10;99.90
60027;DHT22;45891;53.006;6.512;2023-04-03T00:31:44;2.10;99.90
60027;DHT22;45891;53.006;6.512;2023-04-03T00:34:10;2.10;99.90
60027;DHT22;45891;53.006;6.512;2023-04-03T00:36:36;2.10;99.90
60027;DHT22;45891;53.006;6.512;2023-04-03T00:39:03;2.00;99.90
60027;DHT22;45891;53.006;6.512;2023-04-03T00:41:28;2.00;99.90
60027;DHT22;45891;53.006;6.512;2023-04-03T00:43:54;2.00;99.90
60027;DHT22;45891;53.006;6.512;2023-04-03T00:46:20;1.90;99.90
60027;DHT22;45891;53.006;6.512;2023-04-03T00:48:47;1.90;99.90
60027;DHT22;45891;53.006;6.512;2023-04-03T00:51:14;1.90;99.90
60027;DHT22;45891;53.006;6.512;2023-04-03T00:54:01;1.90;99.90
60027;DHT22;45891;53.006;6.512;2023-04-03T00:56:28;1.80;99.90
60027;DHT22;45891;53.006;6.512;2023-04-03T00:59:03;1.80;99.90
60027;DHT22;45891;53.006;6.512;2023-04-03T01:01:29;1.80;99.90
60027;DHT22;45891;53.006;6.512;2023-04-03T01:03:57;1.70;99.90
60027;DHT22;45891;53.006;6.512;2023-04-03T01:06:25;1.70;99.90
60027;DHT22;45891;53.006;6.512;2023-04-03T01:08:51;1.70;99.90
60027;DHT22;45891;53.006;6.512;2023-04-03T01:11:18;1.60;99.90
60027;DHT22;45891;53.006;6.512;2023-04-03T01:13:44;1.60;99.90
60027;DHT22;45891;53.006;6.512;2023-04-03T01:16:10;1.60;99.90
60027;DHT22;45891;53.006;6.512;2023-04-03T01:18:37;1.60;99.90
60027;DHT22;45891;53.006;6.512;2023-04-03T01:25:59;1.50;99.90
60027;DHT22;45891;53.006;6.512;2023-04-03T01:28:26;1.50;99.90
60027;DHT22;45891;53.006;6.512;2023-04-03T01:31:27;1.40;99.90
60027;DHT22;45891;53.006;6.512;2023-04-03T01:33:47;1.40;99.90
60027;DHT22;45891;53.006;6.512;2023-04-03T01:36:15;1.40;99.90
60027;DHT22;45891;53.006;6.512;2023-04-03T01:38:41;1.30;99.90
60027;DHT22;45891;53.006;6.512;2023-04-03T01:41:07;1.30;99.90
60027;DHT22;45891;53.006;6.512;2023-04-03T01:43:33;1.30;99.90
60027;DHT22;45891;53.006;6.512;2023-04-03T01:45:59;1.20;99.90
60027;DHT22;45891;53.006;6.512;2023-04-03T01:48:25;1.20;99.90
60027;DHT22;45891;53.006;6.512;2023-04-03T01:50:51;1.20;99.90
60027;DHT22;45891;53.006;6.512;2023-04-03T01:53:17;1.10;99.90
60027;DHT22;45891;53.006;6.512;2023-04-03T01:55:43;1.10;99.90
60027;DHT22;45891;53.006;6.512;2023-04-03T01:58:09;1.10;99.90
60027;DHT22;45891;53.006;6.512;2023-04-03T02:00:35;1.10;99.90
60027;DHT22;45891;53.006;6.512;2023-04-03T02:03:02;1.10;99.90
60027;DHT22;45891;53.006;6.512;2023-04-03T02:05:28;1.00;99.90
60027;DHT22;45891;53.006;6.512;2023-04-03T02:07:54;1.00;99.90
60027;DHT22;45891;53.006;6.512;2023-04-03T02:10:20;1.00;99.90
60027;DHT22;45891;53.006;6.512;2023-04-03T02:12:46;1.00;99.90
60027;DHT22;45891;53.006;6.512;2023-04-03T02:15:12;0.90;99.90
60027;DHT22;45891;53.006;6.512;2023-04-03T02:17:38;0.90;99.90
60027;DHT22;45891;53.006;6.512;2023-04-03T02:20:04;0.90;99.90
60027;DHT22;45891;53.006;6.512;2023-04-03T02:22:30;0.80;99.90
60027;DHT22;45891;53.006;6.512;2023-04-03T02:24:56;0.80;99.90
60027;DHT22;45891;53.006;6.512;2023-04-03T02:27:22;0.80;99.90
60027;DHT22;45891;53.006;6.512;2023-04-03T02:29:48;0.80;99.90
60027;DHT22;45891;53.006;6.512;2023-04-03T02:32:14;0.70;99.90
60027;DHT22;45891;53.006;6.512;2023-04-03T02:34:40;0.70;99.90
60027;DHT22;45891;53.006;6.512;2023-04-03T02:37:06;0.70;99.90
60027;DHT22;45891;53.006;6.512;2023-04-03T02:39:31;0.60;99.90
60027;DHT22;45891;53.006;6.512;2023-04-03T02:41:57;0.60;99.90
60027;DHT22;45891;53.006;6.512;2023-04-03T02:44:24;0.60;99.90
60027;DHT22;45891;53.006;6.512;2023-04-03T02:46:50;0.50;99.90
60027;DHT22;45891;53.006;6.512;2023-04-03T02:49:16;0.50;99.90
60027;DHT22;45891;53.006;6.512;2023-04-03T02:51:42;0.50;99.90
60027;DHT22;45891;53.006;6.512;2023-04-03T02:54:08;0.40;99.90
60027;DHT22;45891;53.006;6.512;2023-04-03T02:56:33;0.40;99.90
60027;DHT22;45891;53.006;6.512;2023-04-03T02:59:00;0.30;99.90
60027;DHT22;45891;53.006;6.512;2023-04-03T03:01:25;0.30;99.90
60027;DHT22;45891;53.006;6.512;2023-04-03T03:03:54;0.30;99.90
60027;DHT22;45891;53.006;6.512;2023-04-03T03:06:19;0.20;99.90
60027;DHT22;45891;53.006;6.512;2023-04-03T03:08:45;0.20;99.90
60027;DHT22;45891;53.006;6.512;2023-04-03T03:11:11;0.10;99.90
60027;DHT22;45891;53.006;6.512;2023-04-03T03:13:37;0.10;99.90
60027;DHT22;45891;53.006;6.512;2023-04-03T03:16:03;0.10;99.90
60027;DHT22;45891;53.006;6.512;2023-04-03T03:18:29;0.00;99.90
60027;DHT22;45891;53.006;6.512;2023-04-03T03:20:56;0.00;99.90
60027;DHT22;45891;53.006;6.512;2023-04-03T03:23:23;0.00;99.90
60027;DHT22;45891;53.006;6.512;2023-04-03T03:25:54;-0.10;99.90
60027;DHT22;45891;53.006;6.512;2023-04-03T03:28:20;-0.10;99.90
60027;DHT22;45891;53.006;6.512;2023-04-03T03:30:46;-0.20;99.90
60027;DHT22;45891;53.006;6.512;2023-04-03T03:33:15;-0.20;99.90
60027;DHT22;45891;53.006;6.512;2023-04-03T03:35:44;-0.20;99.90
60027;DHT22;45891;53.006;6.512;2023-04-03T03:38:10;-0.30;99.90
60027;DHT22;45891;53.006;6.512;2023-04-03T03:40:36;-0.30;99.90
60027;DHT22;45891;53.006;6.512;2023-04-03T03:43:02;-0.30;99.90
60027;DHT22;45891;53.006;6.512;2023-04-03T03:45:28;-0.30;99.90
60027;DHT22;45891;53.006;6.512;2023-04-03T03:47:54;-0.40;99.90
60027;DHT22;45891;53.006;6.512;2023-04-03T03:50:20;-0.40;99.90
60027;DHT22;45891;53.006;6.512;2023-04-03T03:52:46;-0.40;99.90
60027;DHT22;45891;53.006;6.512;2023-04-03T03:55:12;-0.40;99.90
60027;DHT22;45891;53.006;6.512;2023-04-03T03:57:38;-0.50;99.90
60027;DHT22;45891;53.006;6.512;2023-04-03T04:00:04;-0.50;99.90
60027;DHT22;45891;53.006;6.512;2023-04-03T04:02:30;-0.50;99.90
60027;DHT22;45891;53.006;6.512;2023-04-03T04:04:56;-0.50;99.90
60027;DHT22;45891;53.006;6.512;2023-04-03T04:07:25;-0.50;99.90
60027;DHT22;45891;53.006;6.512;2023-04-03T04:09:53;-0.50;99.90
60027;DHT22;45891;53.006;6.512;2023-04-03T04:12:19;-0.50;99.90
60027;DHT22;45891;53.006;6.512;2023-04-03T04:14:46;-0.50;99.90
60027;DHT22;45891;53.006;6.512;2023-04-03T04:17:12;-0.50;99.90
60027;DHT22;45891;53.006;6.512;2023-04-03T04:19:38;-0.50;99.90
60027;DHT22;45891;53.006;6.512;2023-04-03T04:22:04;-0.50;99.90
60027;DHT22;45891;53.006;6.512;2023-04-03T04:24:30;-0.50;99.90
60027;DHT22;45891;53.006;6.512;2023-04-03T04:26:56;-0.50;99.90
60027;DHT22;45891;53.006;6.512;2023-04-03T04:29:22;-0.60;99.90
60027;DHT22;45891;53.006;6.512;2023-04-03T04:31:48;-0.60;99.90
60027;DHT22;45891;53.006;6.512;2023-04-03T04:34:14;-0.60;99.90
60027;DHT22;45891;53.006;6.512;2023-04-03T04:36:40;-0.60;99.90
60027;DHT22;45891;53.006;6.512;2023-04-03T04:39:06;-0.60;99.90
60027;DHT22;45891;53.006;6.512;2023-04-03T04:41:33;-0.60;99.90
60027;DHT22;45891;53.006;6.512;2023-04-03T04:43:59;-0.60;99.90
60027;DHT22;45891;53.006;6.512;2023-04-03T04:46:25;-0.60;99.90
60027;DHT22;45891;53.006;6.512;2023-04-03T04:48:50;-0.60;99.90
60027;DHT22;45891;53.006;6.512;2023-04-03T04:51:16;-0.60;99.90
60027;DHT22;45891;53.006;6.512;2023-04-03T04:53:45;-0.60;99.90
60027;DHT22;45891;53.006;6.512;2023-04-03T04:56:11;-0.60;99.90
60027;DHT22;45891;53.006;6.512;2023-04-03T04:58:37;-0.60;99.90
60027;DHT22;45891;53.006;6.512;2023-04-03T05:01:04;-0.60;99.90
60027;DHT22;45891;53.006;6.512;2023-04-03T05:03:31;-0.60;99.90
60027;DHT22;45891;53.006;6.512;2023-04-03T05:05:57;-0.60;99.90
60027;DHT22;45891;53.006;6.512;2023-04-03T05:08:23;-0.60;99.90
60027;DHT22;45891;53.006;6.512;2023-04-03T05:10:49;-0.60;99.90
60027;DHT22;45891;53.006;6.512;2023-04-03T05:13:15;-0.60;99.90
60027;DHT22;45891;53.006;6.512;2023-04-03T05:15:41;-0.60;99.90
60027;DHT22;45891;53.006;6.512;2023-04-03T05:18:06;-0.60;99.90
60027;DHT22;45891;53.006;6.512;2023-04-03T05:20:32;-0.60;99.90
60027;DHT22;45891;53.006;6.512;2023-04-03T05:22:59;-0.60;99.90
60027;DHT22;45891;53.006;6.512;2023-04-03T05:25:25;-0.60;99.90
60027;DHT22;45891;53.006;6.512;2023-04-03T05:27:50;-0.60;99.90
60027;DHT22;45891;53.006;6.512;2023-04-03T05:30:16;-0.60;99.90
60027;DHT22;45891;53.006;6.512;2023-04-03T05:32:43;-0.60;99.90
60027;DHT22;45891;53.006;6.512;2023-04-03T05:35:11;-0.60;99.90
60027;DHT22;45891;53.006;6.512;2023-04-03T05:37:37;-0.50;99.90
60027;DHT22;45891;53.006;6.512;2023-04-03T05:40:04;-0.10;99.90
60027;DHT22;45891;53.006;6.512;2023-04-03T05:42:30;0.20;99.90
60027;DHT22;45891;53.006;6.512;2023-04-03T05:44:56;0.60;99.90
60027;DHT22;45891;53.006;6.512;2023-04-03T05:47:22;0.70;99.90
60027;DHT22;45891;53.006;6.512;2023-04-03T05:49:48;1.00;99.90
60027;DHT22;45891;53.006;6.512;2023-04-03T05:52:20;1.10;99.90
60027;DHT22;45891;53.006;6.512;2023-04-03T05:54:46;1.10;99.90
60027;DHT22;45891;53.006;6.512;2023-04-03T05:57:14;0.90;99.90
60027;DHT22;45891;53.006;6.512;2023-04-03T05:59:44;1.00;99.90
60027;DHT22;45891;53.006;6.512;2023-04-03T06:02:11;1.10;99.90
60027;DHT22;45891;53.006;6.512;2023-04-03T06:04:37;1.60;99.90
60027;DHT22;45891;53.006;6.512;2023-04-03T06:07:04;2.00;99.90
60027;DHT22;45891;53.006;6.512;2023-04-03T06:09:30;2.40;99.90
60027;DHT22;45891;53.006;6.512;2023-04-03T06:11:56;3.00;99.90
60027;DHT22;45891;53.006;6.512;2023-04-03T06:14:24;3.50;99.90
60027;DHT22;45891;53.006;6.512;2023-04-03T06:16:51;3.80;99.90
60027;DHT22;45891;53.006;6.512;2023-04-03T06:19:17;4.10;99.90
60027;DHT22;45891;53.006;6.512;2023-04-03T06:21:43;4.50;99.90
60027;DHT22;45891;53.006;6.512;2023-04-03T06:24:10;4.70;99.90
60027;DHT22;45891;53.006;6.512;2023-04-03T06:26:38;4.90;99.90
60027;DHT22;45891;53.006;6.512;2023-04-03T06:29:06;5.10;99.90
60027;DHT22;45891;53.006;6.512;2023-04-03T06:31:32;5.30;99.90
60027;DHT22;45891;53.006;6.512;2023-04-03T06:33:58;5.40;99.90
60027;DHT22;45891;53.006;6.512;2023-04-03T06:36:24;5.70;99.90
60027;DHT22;45891;53.006;6.512;2023-04-03T06:38:51;5.70;99.90
60027;DHT22;45891;53.006;6.512;2023-04-03T06:41:17;5.80;99.90
60027;DHT22;45891;53.006;6.512;2023-04-03T06:43:43;6.10;99.90
60027;DHT22;45891;53.006;6.512;2023-04-03T06:46:13;6.30;99.90
60027;DHT22;45891;53.006;6.512;2023-04-03T06:48:39;6.40;99.90
60027;DHT22;45891;53.006;6.512;2023-04-03T06:51:05;6.70;99.90
60027;DHT22;45891;53.006;6.512;2023-04-03T06:53:31;7.10;99.90
60027;DHT22;45891;53.006;6.512;2023-04-03T06:55:57;7.10;99.90
60027;DHT22;45891;53.006;6.512;2023-04-03T06:58:23;7.00;99.90
60027;DHT22;45891;53.006;6.512;2023-04-03T07:00:52;6.90;99.90
60027;DHT22;45891;53.006;6.512;2023-04-03T07:03:18;7.30;99.90
60027;DHT22;45891;53.006;6.512;2023-04-03T07:05:44;7.60;99.90
60027;DHT22;45891;53.006;6.512;2023-04-03T07:08:13;7.70;99.90
60027;DHT22;45891;53.006;6.512;2023-04-03T07:10:39;7.70;99.90
60027;DHT22;45891;53.006;6.512;2023-04-03T07:13:05;7.60;99.40
60027;DHT22;45891;53.006;6.512;2023-04-03T07:15:31;7.40;99.70
60027;DHT22;45891;53.006;6.512;2023-04-03T07:17:56;7.80;99.90
60027;DHT22;45891;53.006;6.512;2023-04-03T07:20:22;8.20;99.80
60027;DHT22;45891;53.006;6.512;2023-04-03T07:22:48;8.40;99.70
60027;DHT22;45891;53.006;6.512;2023-04-03T07:25:14;8.40;98.90
60027;DHT22;45891;53.006;6.512;2023-04-03T07:27:40;8.60;99.00
60027;DHT22;45891;53.006;6.512;2023-04-03T07:30:06;8.80;98.70
60027;DHT22;45891;53.006;6.512;2023-04-03T07:32:32;9.10;98.20
60027;DHT22;45891;53.006;6.512;2023-04-03T07:34:58;9.20;98.10
60027;DHT22;45891;53.006;6.512;2023-04-03T07:37:24;9.20;97.60
60027;DHT22;45891;53.006;6.512;2023-04-03T07:39:50;9.30;97.40
60027;DHT22;45891;53.006;6.512;2023-04-03T07:42:16;9.30;96.80
60027;DHT22;45891;53.006;6.512;2023-04-03T07:44:42;9.50;97.70
60027;DHT22;45891;53.006;6.512;2023-04-03T07:47:08;9.70;97.30
60027;DHT22;45891;53.006;6.512;2023-04-03T07:49:34;9.70;96.40
60027;DHT22;45891;53.006;6.512;2023-04-03T07:52:03;9.60;96.00
60027;DHT22;45891;53.006;6.512;2023-04-03T07:54:29;10.00;96.90
60027;DHT22;45891;53.006;6.512;2023-04-03T07:56:55;10.10;96.40
60027;DHT22;45891;53.006;6.512;2023-04-03T07:59:22;10.30;96.50
60027;DHT22;45891;53.006;6.512;2023-04-03T08:01:48;10.30;95.80
60027;DHT22;45891;53.006;6.512;2023-04-03T08:04:14;10.70;96.90
60027;DHT22;45891;53.006;6.512;2023-04-03T08:06:40;11.00;96.70
60027;DHT22;45891;53.006;6.512;2023-04-03T08:09:06;11.40;96.00
60027;DHT22;45891;53.006;6.512;2023-04-03T08:11:32;11.60;95.80
60027;DHT22;45891;53.006;6.512;2023-04-03T08:13:58;11.60;94.80
60027;DHT22;45891;53.006;6.512;2023-04-03T08:16:24;11.60;94.60
60027;DHT22;45891;53.006;6.512;2023-04-03T08:18:54;12.00;95.20
60027;DHT22;45891;53.006;6.512;2023-04-03T08:21:20;12.10;94.90
60027;DHT22;45891;53.006;6.512;2023-04-03T08:23:47;12.40;94.20
60027;DHT22;45891;53.006;6.512;2023-04-03T08:26:15;12.40;93.10
60027;DHT22;45891;53.006;6.512;2023-04-03T08:28:41;12.30;91.90
60027;DHT22;45891;53.006;6.512;2023-04-03T08:31:09;12.50;93.60
60027;DHT22;45891;53.006;6.512;2023-04-03T08:33:36;12.80;92.70
60027;DHT22;45891;53.006;6.512;2023-04-03T08:36:06;13.10;93.00
60027;DHT22;45891;53.006;6.512;2023-04-03T08:38:33;13.20;92.00
60027;DHT22;45891;53.006;6.512;2023-04-03T08:41:04;13.20;91.60
60027;DHT22;45891;53.006;6.512;2023-04-03T08:43:38;13.30;90.80
60027;DHT22;45891;53.006;6.512;2023-04-03T08:46:05;13.40;92.30
60027;DHT22;45891;53.006;6.512;2023-04-03T08:48:35;13.80;91.80
60027;DHT22;45891;53.006;6.512;2023-04-03T08:51:09;14.20;92.50
60027;DHT22;45891;53.006;6.512;2023-04-03T08:53:39;14.00;90.30
60027;DHT22;45891;53.006;6.512;2023-04-03T08:56:07;14.40;92.10
60027;DHT22;45891;53.006;6.512;2023-04-03T08:58:56;14.80;90.80
60027;DHT22;45891;53.006;6.512;2023-04-03T09:01:54;14.90;89.20
60027;DHT22;45891;53.006;6.512;2023-04-03T09:04:13;15.10;88.70
60027;DHT22;45891;53.006;6.512;2023-04-03T09:06:41;15.70;90.70
60027;DHT22;45891;53.006;6.512;2023-04-03T09:14:39;16.40;89.30
60027;DHT22;45891;53.006;6.512;2023-04-03T09:20:25;16.70;86.70
60027;DHT22;45891;53.006;6.512;2023-04-03T09:22:43;16.20;84.60
60027;DHT22;45891;53.006;6.512;2023-04-03T09:25:20;16.60;81.00
60027;DHT22;45891;53.006;6.512;2023-04-03T09:27:47;16.80;82.00
60027;DHT22;45891;53.006;6.512;2023-04-03T09:30:17;16.30;78.30
60027;DHT22;45891;53.006;6.512;2023-04-03T09:32:44;16.20;79.50
60027;DHT22;45891;53.006;6.512;2023-04-03T09:37:41;16.80;77.60
60027;DHT22;45891;53.006;6.512;2023-04-03T09:42:53;17.00;74.40
60027;DHT22;45891;53.006;6.512;2023-04-03T09:45:37;17.40;78.60
60027;DHT22;45891;53.006;6.512;2023-04-03T09:50:35;18.70;76.00
60027;DHT22;45891;53.006;6.512;2023-04-03T09:53:06;18.60;70.20
60027;DHT22;45891;53.006;6.512;2023-04-03T09:55:40;18.80;77.30
60027;DHT22;45891;53.006;6.512;2023-04-03T09:58:11;19.30;72.70
60027;DHT22;45891;53.006;6.512;2023-04-03T10:00:53;19.80;70.20
60027;DHT22;45891;53.006;6.512;2023-04-03T10:03:33;18.80;68.40
60027;DHT22;45891;53.006;6.512;2023-04-03T10:06:02;18.80;68.40
60027;DHT22;45891;53.006;6.512;2023-04-03T10:08:32;19.50;75.10
60027;DHT22;45891;53.006;6.512;2023-04-03T10:11:09;20.40;72.40
60027;DHT22;45891;53.006;6.512;2023-04-03T10:13:35;20.30;68.30
60027;DHT22;45891;53.006;6.512;2023-04-03T10:16:12;20.10;66.40
60027;DHT22;45891;53.006;6.512;2023-04-03T10:18:49;19.60;66.00
60027;DHT22;45891;53.006;6.512;2023-04-03T10:21:32;20.10;69.60
60027;DHT22;45891;53.006;6.512;2023-04-03T10:26:51;20.30;65.00
60027;DHT22;45891;53.006;6.512;2023-04-03T10:31:52;19.90;64.30
60027;DHT22;45891;53.006;6.512;2023-04-03T10:36:59;18.90;63.00
60027;DHT22;45891;53.006;6.512;2023-04-03T10:40:15;19.30;63.00
60027;DHT22;45891;53.006;6.512;2023-04-03T10:42:17;19.80;65.40
60027;DHT22;45891;53.006;6.512;2023-04-03T10:44:49;19.50;60.80
60027;DHT22;45891;53.006;6.512;2023-04-03T10:47:30;18.60;59.20
60027;DHT22;45891;53.006;6.512;2023-04-03T10:55:21;18.60;62.80
60027;DHT22;45891;53.006;6.512;2023-04-03T10:57:50;18.40;59.40
60027;DHT22;45891;53.006;6.512;2023-04-03T11:00:21;18.40;59.40
60027;DHT22;45891;53.006;6.512;2023-04-03T11:02:50;18.60;62.30
60027;DHT22;45891;53.006;6.512;2023-04-03T11:05:29;18.70;59.90
60027;DHT22;45891;53.006;6.512;2023-04-03T11:07:56;18.40;57.80
60027;DHT22;45891;53.006;6.512;2023-04-03T11:10:35;18.60;60.60
60027;DHT22;45891;53.006;6.512;2023-04-03T11:13:06;18.40;59.70
60027;DHT22;45891;53.006;6.512;2023-04-03T11:15:35;18.50;58.10
60027;DHT22;45891;53.006;6.512;2023-04-03T11:18:02;18.90;60.10
60027;DHT22;45891;53.006;6.512;2023-04-03T11:20:30;19.00;56.20
60027;DHT22;45891;53.006;6.512;2023-04-03T11:25:43;18.60;57.80
60027;DHT22;45891;53.006;6.512;2023-04-03T11:28:12;18.80;59.20
60027;DHT22;45891;53.006;6.512;2023-04-03T11:33:09;18.70;58.90
60027;DHT22;45891;53.006;6.512;2023-04-03T11:35:41;18.60;60.50
60027;DHT22;45891;53.006;6.512;2023-04-03T11:38:23;18.70;59.60
60027;DHT22;45891;53.006;6.512;2023-04-03T11:40:52;18.80;57.50
60027;DHT22;45891;53.006;6.512;2023-04-03T11:45:58;19.20;61.00
60027;DHT22;45891;53.006;6.512;2023-04-03T11:50:54;19.20;58.50
60027;DHT22;45891;53.006;6.512;2023-04-03T11:53:31;19.10;59.80
60027;DHT22;45891;53.006;6.512;2023-04-03T12:08:52;18.20;56.60
60027;DHT22;45891;53.006;6.512;2023-04-03T12:16:19;18.30;56.10
60027;DHT22;45891;53.006;6.512;2023-04-03T12:21:14;18.20;57.80
60027;DHT22;45891;53.006;6.512;2023-04-03T12:29:14;17.60;57.00
60027;DHT22;45891;53.006;6.512;2023-04-03T12:31:46;17.40;58.30
60027;DHT22;45891;53.006;6.512;2023-04-03T12:36:59;17.50;58.00
60027;DHT22;45891;53.006;6.512;2023-04-03T12:39:48;16.80;61.30
60027;DHT22;45891;53.006;6.512;2023-04-03T12:42:24;17.70;62.70
60027;DHT22;45891;53.006;6.512;2023-04-03T12:49:46;17.90;58.00
60027;DHT22;45891;53.006;6.512;2023-04-03T12:54:50;17.40;57.10
60027;DHT22;45891;53.006;6.512;2023-04-03T12:57:26;16.90;57.70
60027;DHT22;45891;53.006;6.512;2023-04-03T12:59:53;17.20;58.20
60027;DHT22;45891;53.006;6.512;2023-04-03T13:02:24;17.00;57.70
60027;DHT22;45891;53.006;6.512;2023-04-03T13:04:51;17.30;59.10
60027;DHT22;45891;53.006;6.512;2023-04-03T13:07:21;17.60;59.80
60027;DHT22;45891;53.006;6.512;2023-04-03T13:09:54;17.90;60.00
60027;DHT22;45891;53.006;6.512;2023-04-03T13:12:20;18.10;59.30
60027;DHT22;45891;53.006;6.512;2023-04-03T13:14:54;18.60;58.70
60027;DHT22;45891;53.006;6.512;2023-04-03T13:17:20;17.90;56.10
60027;DHT22;45891;53.006;6.512;2023-04-03T13:19:46;18.00;57.70
60027;DHT22;45891;53.006;6.512;2023-04-03T13:22:19;18.10;58.30
60027;DHT22;45891;53.006;6.512;2023-04-03T13:24:49;18.40;60.00
60027;DHT22;45891;53.006;6.512;2023-04-03T13:27:16;19.00;59.80
60027;DHT22;45891;53.006;6.512;2023-04-03T13:29:48;19.20;60.50
60027;DHT22;45891;53.006;6.512;2023-04-03T13:32:24;19.50;58.50
60027;DHT22;45891;53.006;6.512;2023-04-03T13:34:52;18.70;56.00
60027;DHT22;45891;53.006;6.512;2023-04-03T13:39:55;17.30;56.30
60027;DHT22;45891;53.006;6.512;2023-04-03T13:42:24;17.00;56.30
60027;DHT22;45891;53.006;6.512;2023-04-03T13:45:06;17.10;57.10
60027;DHT22;45891;53.006;6.512;2023-04-03T13:47:37;17.10;58.20
60027;DHT22;45891;53.006;6.512;2023-04-03T13:50:15;17.10;58.20
60027;DHT22;45891;53.006;6.512;2023-04-03T13:52:43;17.80;56.50
60027;DHT22;45891;53.006;6.512;2023-04-03T13:55:23;18.30;59.60
60027;DHT22;45891;53.006;6.512;2023-04-03T13:57:57;18.80;55.60
60027;DHT22;45891;53.006;6.512;2023-04-03T14:00:28;18.90;59.10
60027;DHT22;45891;53.006;6.512;2023-04-03T14:02:55;18.50;56.60
60027;DHT22;45891;53.006;6.512;2023-04-03T14:05:22;18.10;56.00
60027;DHT22;45891;53.006;6.512;2023-04-03T14:07:51;18.10;57.30
60027;DHT22;45891;53.006;6.512;2023-04-03T14:10:17;18.30;58.30
60027;DHT22;45891;53.006;6.512;2023-04-03T14:12:43;18.30;56.80
60027;DHT22;45891;53.006;6.512;2023-04-03T14:15:16;18.20;57.20
60027;DHT22;45891;53.006;6.512;2023-04-03T14:17:42;17.60;55.10
60027;DHT22;45891;53.006;6.512;2023-04-03T14:20:15;17.40;54.60
60027;DHT22;45891;53.006;6.512;2023-04-03T14:22:41;17.50;57.10
60027;DHT22;45891;53.006;6.512;2023-04-03T14:25:07;17.80;57.20
60027;DHT22;45891;53.006;6.512;2023-04-03T14:27:38;18.10;56.60
60027;DHT22;45891;53.006;6.512;2023-04-03T14:30:06;18.30;56.20
60027;DHT22;45891;53.006;6.512;2023-04-03T14:32:32;18.20;57.70
60027;DHT22;45891;53.006;6.512;2023-04-03T14:34:58;18.90;58.20
60027;DHT22;45891;53.006;6.512;2023-04-03T14:37:25;18.30;54.10
60027;DHT22;45891;53.006;6.512;2023-04-03T14:39:53;17.50;54.00
60027;DHT22;45891;53.006;6.512;2023-04-03T14:42:22;17.50;55.40
60027;DHT22;45891;53.006;6.512;2023-04-03T14:44:48;17.60;56.20
60027;DHT22;45891;53.006;6.512;2023-04-03T14:47:15;17.60;56.50
60027;DHT22;45891;53.006;6.512;2023-04-03T14:49:42;17.90;58.40
60027;DHT22;45891;53.006;6.512;2023-04-03T14:52:16;18.10;58.30
60027;DHT22;45891;53.006;6.512;2023-04-03T14:54:43;18.20;56.10
60027;DHT22;45891;53.006;6.512;2023-04-03T14:57:09;17.60;58.20
60027;DHT22;45891;53.006;6.512;2023-04-03T14:59:37;16.80;55.80
60027;DHT22;45891;53.006;6.512;2023-04-03T15:02:08;17.50;56.00
60027;DHT22;45891;53.006;6.512;2023-04-03T15:04:37;16.90;54.60
60027;DHT22;45891;53.006;6.512;2023-04-03T15:07:03;17.20;55.70
60027;DHT22;45891;53.006;6.512;2023-04-03T15:09:30;17.20;56.00
60027;DHT22;45891;53.006;6.512;2023-04-03T15:11:56;17.50;56.00
60027;DHT22;45891;53.006;6.512;2023-04-03T15:14:22;17.60;57.50
60027;DHT22;45891;53.006;6.512;2023-04-03T15:16:48;17.10;57.60
60027;DHT22;45891;53.006;6.512;2023-04-03T15:19:14;17.20;57.00
60027;DHT22;45891;53.006;6.512;2023-04-03T15:21:40;16.80;56.60
60027;DHT22;45891;53.006;6.512;2023-04-03T15:24:06;16.80;56.80
60027;DHT22;45891;53.006;6.512;2023-04-03T15:26:32;16.80;58.20
60027;DHT22;45891;53.006;6.512;2023-04-03T15:28:58;16.80;55.50
60027;DHT22;45891;53.006;6.512;2023-04-03T15:31:24;17.70;57.80
60027;DHT22;45891;53.006;6.512;2023-04-03T15:33:50;17.40;55.50
60027;DHT22;45891;53.006;6.512;2023-04-03T15:36:16;17.20;56.40
60027;DHT22;45891;53.006;6.512;2023-04-03T15:38:42;17.10;55.10
60027;DHT22;45891;53.006;6.512;2023-04-03T15:41:08;16.50;54.40
60027;DHT22;45891;53.006;6.512;2023-04-03T15:43:33;17.50;58.10
60027;DHT22;45891;53.006;6.512;2023-04-03T15:46:00;17.50;58.20
60027;DHT22;45891;53.006;6.512;2023-04-03T15:48:27;17.20;55.30
60027;DHT22;45891;53.006;6.512;2023-04-03T15:50:53;17.20;57.20
60027;DHT22;45891;53.006;6.512;2023-04-03T15:53:19;16.40;53.90
60027;DHT22;45891;53.006;6.512;2023-04-03T15:55:45;16.70;56.10
60027;DHT22;45891;53.006;6.512;2023-04-03T15:58:11;16.20;55.20
60027;DHT22;45891;53.006;6.512;2023-04-03T16:00:37;16.40;57.50
60027;DHT22;45891;53.006;6.512;2023-04-03T16:03:10;16.90;56.70
60027;DHT22;45891;53.006;6.512;2023-04-03T16:05:37;16.80;57.90
60027;DHT22;45891;53.006;6.512;2023-04-03T16:08:04;16.80;57.80
60027;DHT22;45891;53.006;6.512;2023-04-03T16:10:30;16.40;57.30
60027;DHT22;45891;53.006;6.512;2023-04-03T16:12:56;16.00;55.70
60027;DHT22;45891;53.006;6.512;2023-04-03T16:15:23;15.90;58.90
60027;DHT22;45891;53.006;6.512;2023-04-03T16:17:50;16.40;58.20
60027;DHT22;45891;53.006;6.512;2023-04-03T16:20:16;16.80;58.90
60027;DHT22;45891;53.006;6.512;2023-04-03T16:22:42;17.00;57.90
60027;DHT22;45891;53.006;6.512;2023-04-03T16:25:08;16.20;55.90
60027;DHT22;45891;53.006;6.512;2023-04-03T16:27:35;15.40;57.80
60027;DHT22;45891;53.006;6.512;2023-04-03T16:30:00;15.90;59.70
60027;DHT22;45891;53.006;6.512;2023-04-03T16:32:28;15.70;57.60
60027;DHT22;45891;53.006;6.512;2023-04-03T16:34:54;15.40;59.50
60027;DHT22;45891;53.006;6.512;2023-04-03T16:37:20;15.80;59.10
60027;DHT22;45891;53.006;6.512;2023-04-03T16:39:46;15.80;58.20
60027;DHT22;45891;53.006;6.512;2023-04-03T16:42:12;15.60;59.20
60027;DHT22;45891;53.006;6.512;2023-04-03T16:44:38;15.70;57.10
60027;DHT22;45891;53.006;6.512;2023-04-03T16:47:05;15.50;58.60
60027;DHT22;45891;53.006;6.512;2023-04-03T16:49:31;15.50;58.10
60027;DHT22;45891;53.006;6.512;2023-04-03T16:51:59;15.00;57.70
60027;DHT22;45891;53.006;6.512;2023-04-03T16:54:26;14.60;57.90
60027;DHT22;45891;53.006;6.512;2023-04-03T16:56:52;14.20;58.20
60027;DHT22;45891;53.006;6.512;2023-04-03T16:59:18;13.80;57.70
60027;DHT22;45891;53.006;6.512;2023-04-03T17:01:44;13.70;58.70
60027;DHT22;45891;53.006;6.512;2023-04-03T17:04:10;13.40;58.00